Astra — PB4187 — position and weather

sailwx.info

Track history (hours):
 
Tides and Currents Weather Stations Pressure Air Temp Water Temp Dewpoint Dewpoint Depression Visibility Wind Speed Wind Dir Waves Ship Positions

Astra

Last reported at 2017-Oct-14 03:47 UTC. Time now 2017-Oct-17 15:36 UTC.
Position N 47°39' E 007°32'.

Length 110 m; draft 0.1 m.

Type: Tanker. MMSI: 244650752.

Date/timePositionNaut miles runAvg speedWind from/ knotsBaromVisibWave heightAir tempDewpointWater temp
2017-Oct-14 03:47N 47°39' E 007°32'2 4.2
2017-Oct-14 03:19N 47°38' E 007°34'3 8.6
2017-Oct-14 03:00N 47°35' E 007°35'2 0.2
2017-Oct-13 18:31N 47°33' E 007°36'0 9.7
2017-Oct-13 18:30N 47°33' E 007°36'1 2.8
2017-Oct-13 18:00N 47°34' E 007°38'1 2.8
2017-Oct-13 17:30N 47°33' E 007°40'0 0.0
2017-Oct-13 17:00N 47°33' E 007°40'0 0.0
2017-Oct-13 16:30N 47°33' E 007°40'0 0.0
2017-Oct-13 16:00N 47°33' E 007°40'0 0.0
2017-Oct-13 15:30N 47°33' E 007°40'0 0.0
2017-Oct-13 15:00N 47°33' E 007°40'0 0.0
2017-Oct-13 14:30N 47°33' E 007°40'0 0.0
2017-Oct-13 14:00N 47°33' E 007°40'0 0.0
2017-Oct-13 13:30N 47°33' E 007°40'0 0.0
2017-Oct-13 13:00N 47°33' E 007°40'0 0.0
2017-Oct-13 12:30N 47°33' E 007°40'0 0.0
2017-Oct-13 12:00N 47°33' E 007°40'0 0.0
2017-Oct-13 11:30N 47°33' E 007°40'0 0.0
2017-Oct-13 11:00N 47°33' E 007°40'1 2.1
2017-Oct-13 10:30N 47°33' E 007°38'0 0.0
2017-Oct-13 10:00N 47°33' E 007°38'0 0.0
2017-Oct-13 09:30N 47°33' E 007°38'0 0.0
2017-Oct-13 09:00N 47°33' E 007°38'0 0.0
2017-Oct-13 08:30N 47°33' E 007°38'0 0.0
2017-Oct-13 08:00N 47°33' E 007°38'0 0.0
2017-Oct-13 07:30N 47°33' E 007°38'0 0.0
2017-Oct-13 07:00N 47°33' E 007°38'0 0.0
2017-Oct-13 06:30N 47°33' E 007°38'0 0.0
2017-Oct-13 06:00N 47°33' E 007°38'0 0.0
2017-Oct-13 05:30N 47°33' E 007°38'0 0.0
2017-Oct-13 05:00N 47°33' E 007°38'0 0.0
2017-Oct-13 04:30N 47°33' E 007°38'1 1.0
2017-Oct-13 04:00N 47°34' E 007°38'1 2.1
2017-Oct-13 03:29N 47°33' E 007°36'2 0.3
2017-Oct-12 21:00N 47°35' E 007°35'  
Track history (hours):
 
Tides and Currents Weather Stations Pressure Air Temp Water Temp Dewpoint Dewpoint Depression Visibility Wind Speed Wind Dir Waves Ship Positions

Astra

Last reported at 2017-Oct-14 03:47 UTC. Time now 2017-Oct-17 15:36 UTC.
Position N 47°39' E 007°32'.

Length 110 m; draft 0.1 m.

Type: Tanker. MMSI: 244650752.

Date/timePositionNaut miles runAvg speedWind from/ knotsBaromVisibWave heightAir tempDewpointWater temp
2017-Oct-14 03:47N 47°39' E 007°32'2 4.2
2017-Oct-14 03:19N 47°38' E 007°34'3 8.6
2017-Oct-14 03:00N 47°35' E 007°35'2 0.2
2017-Oct-13 18:31N 47°33' E 007°36'0 9.7
2017-Oct-13 18:30N 47°33' E 007°36'1 2.8
2017-Oct-13 18:00N 47°34' E 007°38'1 2.8
2017-Oct-13 17:30N 47°33' E 007°40'0 0.0
2017-Oct-13 17:00N 47°33' E 007°40'0 0.0
2017-Oct-13 16:30N 47°33' E 007°40'0 0.0
2017-Oct-13 16:00N 47°33' E 007°40'0 0.0
2017-Oct-13 15:30N 47°33' E 007°40'0 0.0
2017-Oct-13 15:00N 47°33' E 007°40'0 0.0
2017-Oct-13 14:30N 47°33' E 007°40'0 0.0
2017-Oct-13 14:00N 47°33' E 007°40'0 0.0
2017-Oct-13 13:30N 47°33' E 007°40'0 0.0
2017-Oct-13 13:00N 47°33' E 007°40'0 0.0
2017-Oct-13 12:30N 47°33' E 007°40'0 0.0
2017-Oct-13 12:00N 47°33' E 007°40'0 0.0
2017-Oct-13 11:30N 47°33' E 007°40'0 0.0
2017-Oct-13 11:00N 47°33' E 007°40'1 2.1
2017-Oct-13 10:30N 47°33' E 007°38'0 0.0
2017-Oct-13 10:00N 47°33' E 007°38'0 0.0
2017-Oct-13 09:30N 47°33' E 007°38'0 0.0
2017-Oct-13 09:00N 47°33' E 007°38'0 0.0
2017-Oct-13 08:30N 47°33' E 007°38'0 0.0
2017-Oct-13 08:00N 47°33' E 007°38'0 0.0
2017-Oct-13 07:30N 47°33' E 007°38'0 0.0
2017-Oct-13 07:00N 47°33' E 007°38'0 0.0
2017-Oct-13 06:30N 47°33' E 007°38'0 0.0
2017-Oct-13 06:00N 47°33' E 007°38'0 0.0
2017-Oct-13 05:30N 47°33' E 007°38'0 0.0
2017-Oct-13 05:00N 47°33' E 007°38'0 0.0
2017-Oct-13 04:30N 47°33' E 007°38'1 1.0
2017-Oct-13 04:00N 47°34' E 007°38'1 2.1
2017-Oct-13 03:29N 47°33' E 007°36'2 0.3
2017-Oct-12 21:00N 47°35' E 007°35'  

Dump ship's entire track history